createdAt,value
2022-11-11T00:00:50.444Z,77.32
2022-11-11T00:03:35.947Z,77.34
2022-11-11T00:06:21.278Z,77.51
2022-11-11T00:09:06.786Z,77.52
2022-11-11T00:11:52.629Z,76.95
2022-11-11T00:14:37.915Z,77.21
2022-11-11T00:17:41.982Z,77.33
2022-11-11T00:20:46.048Z,77.16
2022-11-11T00:23:50.391Z,76.82
2022-11-11T00:26:40.388Z,76.63
2022-11-11T00:29:26.287Z,76.61
2022-11-11T00:32:23.631Z,76.88
2022-11-11T00:35:28.486Z,76.75
2022-11-11T00:38:33.805Z,76.58
2022-11-11T00:41:21.204Z,76.54
2022-11-11T00:44:06.845Z,76.84
2022-11-11T00:47:10.865Z,76.60
2022-11-11T00:50:15.000Z,76.51
2022-11-11T00:53:01.021Z,76.48
2022-11-11T00:55:46.350Z,76.62
2022-11-11T00:58:31.611Z,76.44
2022-11-11T01:01:17.498Z,76.45
2022-11-11T01:04:03.495Z,76.41
2022-11-11T01:06:49.338Z,76.60
2022-11-11T01:09:34.603Z,76.42
2022-11-11T01:12:20.199Z,76.43
2022-11-11T01:15:06.347Z,76.60
2022-11-11T01:17:51.868Z,76.66
2022-11-11T01:20:38.495Z,76.58
2022-11-11T01:23:24.012Z,76.58
2022-11-11T01:26:31.637Z,76.95
2022-11-11T01:29:17.230Z,76.89
2022-11-11T01:32:02.619Z,76.98
2022-11-11T01:34:47.994Z,76.86
2022-11-11T01:37:39.167Z,76.70
2022-11-11T01:40:24.847Z,76.83
2022-11-11T01:43:13.008Z,76.84
2022-11-11T01:46:00.925Z,77.36
2022-11-11T01:49:08.191Z,77.25
2022-11-11T01:52:02.793Z,77.34
2022-11-11T01:55:08.027Z,77.39
2022-11-11T01:58:15.724Z,77.63
2022-11-11T02:01:02.679Z,77.70
2022-11-11T02:04:08.818Z,78.03
2022-11-11T02:06:58.056Z,77.82
2022-11-11T02:09:47.083Z,77.78
2022-11-11T02:12:51.415Z,77.80
2022-11-11T02:15:38.434Z,77.97
2022-11-11T02:18:24.365Z,77.93
2022-11-11T02:21:20.638Z,77.93
2022-11-11T02:24:10.152Z,78.40
2022-11-11T02:26:58.675Z,78.16
2022-11-11T02:29:48.438Z,78.38
2022-11-11T02:32:34.291Z,78.31
2022-11-11T02:35:26.024Z,78.33
2022-11-11T02:38:12.388Z,78.29
2022-11-11T02:41:16.416Z,78.09
2022-11-11T02:44:02.198Z,78.17
2022-11-11T02:46:47.328Z,78.30
2022-11-11T02:49:32.839Z,78.25
2022-11-11T02:52:17.973Z,78.34
2022-11-11T02:55:04.300Z,78.20
2022-11-11T02:57:50.170Z,78.18
2022-11-11T03:00:35.208Z,77.92
2022-11-11T03:03:20.800Z,77.73
2022-11-11T03:06:06.396Z,77.74
2022-11-11T03:08:52.029Z,77.49
2022-11-11T03:11:38.578Z,77.35
2022-11-11T03:14:24.640Z,77.60
2022-11-11T03:17:29.361Z,77.27
2022-11-11T03:20:37.196Z,77.17
2022-11-11T03:23:22.863Z,77.24
2022-11-11T03:26:09.175Z,76.90
2022-11-11T03:28:54.847Z,76.65
2022-11-11T03:31:40.381Z,76.45
2022-11-11T03:34:25.719Z,76.41
2022-11-11T03:37:31.062Z,76.18
2022-11-11T03:40:16.269Z,76.17
2022-11-11T03:43:04.964Z,75.72
2022-11-11T03:45:54.849Z,75.67
2022-11-11T03:48:40.260Z,75.60
2022-11-11T03:51:25.632Z,75.47
2022-11-11T03:54:10.904Z,75.40
2022-11-11T03:57:18.978Z,75.12
2022-11-11T04:00:12.249Z,75.22
2022-11-11T04:03:25.803Z,74.67
2022-11-11T04:06:30.110Z,74.59
2022-11-11T04:09:34.346Z,74.87
2022-11-11T04:12:19.974Z,74.59
2022-11-11T04:15:23.910Z,74.49
2022-11-11T04:18:09.519Z,74.37
2022-11-11T04:21:23.740Z,74.49
2022-11-11T04:24:43.377Z,74.47
2022-11-11T04:27:28.497Z,74.47
2022-11-11T04:30:13.686Z,73.97
2022-11-11T04:32:58.996Z,74.30
2022-11-11T04:35:49.435Z,74.48
2022-11-11T04:38:53.456Z,73.98
2022-11-11T04:42:01.752Z,74.13
2022-11-11T04:45:02.830Z,74.21
2022-11-11T04:48:10.856Z,74.09
2022-11-11T04:50:57.206Z,74.08
2022-11-11T04:53:42.537Z,74.04
2022-11-11T04:56:46.447Z,74.04
2022-11-11T04:59:31.968Z,74.19
2022-11-11T05:02:36.030Z,74.25
2022-11-11T05:05:23.148Z,74.21
2022-11-11T05:08:27.292Z,74.04
2022-11-11T05:11:12.782Z,74.03
2022-11-11T05:14:18.879Z,74.15
2022-11-11T05:17:23.255Z,73.90
2022-11-11T05:20:28.463Z,73.84
2022-11-11T05:23:13.590Z,74.01
2022-11-11T05:25:59.017Z,73.86
2022-11-11T05:28:44.475Z,73.77
2022-11-11T05:31:30.418Z,74.01
2022-11-11T05:34:15.663Z,74.07
2022-11-11T05:37:01.242Z,74.01
2022-11-11T05:39:46.783Z,74.11
2022-11-11T05:42:32.173Z,73.84
2022-11-11T05:45:17.846Z,74.08
2022-11-11T05:48:03.710Z,73.96
2022-11-11T05:50:48.895Z,74.11
2022-11-11T05:53:34.535Z,73.84
2022-11-11T05:56:20.079Z,73.82
2022-11-11T05:59:06.597Z,73.88
2022-11-11T06:01:52.134Z,73.69
2022-11-11T06:04:37.765Z,73.51
2022-11-11T06:07:23.191Z,73.26
2022-11-11T06:10:28.179Z,73.17
2022-11-11T06:13:15.104Z,73.09
2022-11-11T06:16:01.092Z,72.91
2022-11-11T06:18:46.937Z,72.63
2022-11-11T06:21:52.717Z,72.49
2022-11-11T06:24:38.108Z,72.54
2022-11-11T06:27:23.374Z,72.23
2022-11-11T06:30:38.203Z,72.39
2022-11-11T06:33:14.537Z,72.20
2022-11-11T06:35:59.973Z,72.01
2022-11-11T06:38:45.659Z,72.39
2022-11-11T06:41:31.394Z,72.14
2022-11-11T06:44:16.870Z,72.21
2022-11-11T06:47:02.216Z,72.07
2022-11-11T06:49:47.528Z,72.19
2022-11-11T06:52:33.361Z,72.08
2022-11-11T06:55:19.168Z,72.12
2022-11-11T06:58:16.418Z,71.97
2022-11-11T07:01:05.096Z,71.90
2022-11-11T07:03:50.374Z,71.87
2022-11-11T07:06:35.900Z,71.46
2022-11-11T07:09:23.495Z,71.40
2022-11-11T07:12:09.200Z,71.21
2022-11-11T07:14:54.810Z,71.20
2022-11-11T07:17:40.129Z,71.06
2022-11-11T07:20:25.453Z,70.79
2022-11-11T07:23:10.864Z,70.54
2022-11-11T07:25:56.226Z,70.13
2022-11-11T07:28:42.350Z,70.22
2022-11-11T07:31:28.027Z,70.40
2022-11-11T07:34:13.504Z,69.64
2022-11-11T07:36:59.150Z,69.31
2022-11-11T07:39:44.676Z,69.18
2022-11-11T07:42:31.863Z,69.12
2022-11-11T07:45:17.569Z,68.71
2022-11-11T07:48:03.183Z,68.89
2022-11-11T07:50:48.482Z,67.93
2022-11-11T07:53:33.756Z,68.24
2022-11-11T07:56:19.076Z,68.43
2022-11-11T07:59:04.539Z,68.27
2022-11-11T08:01:50.045Z,68.04
2022-11-11T08:04:35.450Z,67.87
2022-11-11T08:07:23.285Z,67.89
2022-11-11T08:10:10.013Z,67.53
2022-11-11T08:13:13.880Z,67.09
2022-11-11T08:15:59.019Z,66.98
2022-11-11T08:18:44.398Z,66.93
2022-11-11T08:21:29.834Z,67.07
2022-11-11T08:25:01.679Z,66.71
2022-11-11T08:27:21.849Z,66.54
2022-11-11T08:30:09.391Z,66.67
2022-11-11T08:33:32.258Z,66.34
2022-11-11T08:36:20.990Z,67.00
2022-11-11T08:39:07.537Z,66.79
2022-11-11T08:41:53.623Z,66.81
2022-11-11T08:44:39.176Z,66.64
2022-11-11T08:47:25.104Z,66.68
2022-11-11T08:50:11.100Z,66.25
2022-11-11T08:52:57.250Z,65.53
2022-11-11T08:55:42.658Z,66.18
2022-11-11T08:58:28.003Z,65.67
2022-11-11T09:01:14.821Z,64.88
2022-11-11T09:04:16.707Z,65.33
2022-11-11T09:07:07.087Z,65.45
2022-11-11T09:09:52.750Z,65.28
2022-11-11T09:12:38.146Z,64.43
2022-11-11T09:15:24.196Z,64.61
2022-11-11T09:18:10.661Z,64.03
2022-11-11T09:20:58.485Z,63.69
2022-11-11T09:23:43.794Z,64.02
2022-11-11T09:26:29.100Z,63.14
2022-11-11T09:29:14.505Z,63.83
2022-11-11T09:31:59.887Z,63.39
2022-11-11T09:34:45.277Z,62.69
2022-11-11T09:37:30.687Z,62.76
2022-11-11T09:40:21.285Z,62.90
2022-11-11T09:43:18.873Z,61.85
2022-11-11T09:46:22.507Z,62.16
2022-11-11T09:49:20.698Z,61.19
2022-11-11T09:52:18.205Z,61.76
2022-11-11T09:55:12.614Z,61.93
2022-11-11T09:58:20.745Z,61.55
2022-11-11T10:01:15.115Z,61.54
2022-11-11T10:04:06.831Z,61.70
2022-11-11T10:07:00.996Z,61.62
2022-11-11T10:10:00.589Z,61.66
2022-11-11T10:12:53.120Z,62.07
2022-11-11T10:16:05.112Z,62.28
2022-11-11T10:19:15.990Z,61.72
2022-11-11T10:22:19.965Z,62.13
2022-11-11T10:25:08.957Z,62.32
2022-11-11T10:27:59.213Z,62.29
2022-11-11T10:30:46.552Z,61.59
2022-11-11T10:33:46.639Z,60.99
2022-11-11T10:36:37.004Z,60.86
2022-11-11T10:39:32.095Z,60.75
2022-11-11T10:42:18.561Z,60.58
2022-11-11T10:45:30.333Z,59.85
2022-11-11T10:48:21.612Z,59.94
2022-11-11T10:51:07.828Z,59.60
2022-11-11T10:54:09.341Z,58.49
2022-11-11T10:57:24.879Z,59.60
2022-11-11T11:00:12.948Z,59.55
2022-11-11T11:03:13.126Z,58.52
2022-11-11T11:06:02.633Z,59.64
2022-11-11T11:08:54.533Z,58.78
2022-11-11T11:11:52.699Z,59.19
2022-11-11T11:14:43.856Z,58.72
2022-11-11T11:17:36.584Z,57.36
2022-11-11T11:20:22.357Z,58.13
2022-11-11T11:23:07.976Z,56.72
2022-11-11T11:25:55.533Z,57.53
2022-11-11T11:29:10.198Z,55.85
2022-11-11T11:31:56.314Z,57.74
2022-11-11T11:34:49.712Z,55.85
2022-11-11T11:37:50.415Z,53.63
2022-11-11T11:40:56.382Z,55.37
2022-11-11T11:43:46.060Z,56.09
2022-11-11T11:46:40.956Z,54.57
2022-11-11T11:49:38.378Z,56.22
2022-11-11T11:52:47.224Z,56.02
2022-11-11T11:55:44.102Z,56.28
2022-11-11T11:58:39.832Z,56.48
2022-11-11T12:01:57.031Z,57.26
2022-11-11T12:04:55.292Z,56.66
2022-11-11T12:08:02.570Z,55.91
2022-11-11T12:11:15.881Z,55.76
2022-11-11T12:14:22.943Z,55.72
2022-11-11T12:17:44.231Z,55.61
2022-11-11T12:21:04.404Z,56.14
2022-11-11T12:23:55.672Z,55.32
2022-11-11T12:26:47.141Z,56.07
2022-11-11T12:30:02.559Z,54.70
2022-11-11T12:33:10.164Z,55.57
2022-11-11T12:36:07.885Z,56.88
2022-11-11T12:39:46.061Z,55.30
2022-11-11T12:42:53.661Z,55.33
2022-11-11T12:45:57.208Z,52.74
2022-11-11T12:48:53.504Z,53.07
2022-11-11T12:52:08.714Z,53.04
2022-11-11T12:55:26.815Z,52.53
2022-11-11T12:58:29.716Z,52.61
2022-11-11T13:01:33.336Z,52.12
2022-11-11T13:04:45.117Z,53.10
2022-11-11T13:07:55.431Z,53.19
2022-11-11T13:10:52.398Z,52.37
2022-11-11T13:13:53.315Z,52.53
2022-11-11T13:16:39.101Z,52.95
2022-11-11T13:19:33.682Z,53.68
2022-11-11T13:22:28.320Z,53.63
2022-11-11T13:25:26.368Z,53.60
2022-11-11T13:28:20.849Z,52.86
2022-11-11T13:31:09.175Z,53.59
2022-11-11T13:33:58.506Z,53.74
2022-11-11T13:36:49.029Z,53.72
2022-11-11T13:39:40.087Z,53.45
2022-11-11T13:42:31.690Z,54.15
2022-11-11T13:45:28.155Z,53.95
2022-11-11T13:48:25.021Z,53.57
2022-11-11T13:51:24.995Z,53.92
2022-11-11T13:54:33.175Z,52.69
2022-11-11T13:57:22.530Z,53.40
2022-11-11T14:00:26.614Z,52.90
2022-11-11T14:03:20.469Z,53.33
2022-11-11T14:06:15.613Z,52.19
2022-11-11T14:09:02.116Z,52.81
2022-11-11T14:11:48.310Z,53.44
2022-11-11T14:14:37.776Z,53.66
2022-11-11T14:17:51.319Z,54.02
2022-11-11T14:20:42.722Z,54.09
2022-11-11T14:23:37.326Z,54.12
2022-11-11T14:26:27.847Z,54.56
2022-11-11T14:29:20.832Z,54.72
2022-11-11T14:32:31.555Z,54.65
2022-11-11T14:35:38.623Z,55.23
2022-11-11T14:38:45.866Z,54.95
2022-11-11T14:41:52.047Z,55.10
2022-11-11T14:44:38.140Z,55.43
2022-11-11T14:47:41.518Z,54.78
2022-11-11T14:50:33.866Z,54.87
2022-11-11T14:53:25.981Z,55.51
2022-11-11T14:56:18.601Z,55.30
2022-11-11T14:59:10.393Z,55.53
2022-11-11T15:01:59.437Z,55.38
2022-11-11T15:04:45.529Z,55.33
2022-11-11T15:07:59.769Z,54.61
2022-11-11T15:11:08.273Z,54.33
2022-11-11T15:14:00.783Z,54.61
2022-11-11T15:17:24.592Z,54.48
2022-11-11T15:20:46.989Z,54.10
2022-11-11T15:23:38.100Z,54.46
2022-11-11T15:26:36.551Z,54.50
2022-11-11T15:29:40.827Z,53.91
2022-11-11T15:32:46.598Z,54.00
2022-11-11T15:35:40.620Z,54.13
2022-11-11T15:38:26.903Z,53.65
2022-11-11T15:41:24.612Z,53.41
2022-11-11T15:44:19.609Z,53.44
2022-11-11T15:47:07.186Z,53.56
2022-11-11T15:49:53.158Z,53.70
2022-11-11T15:52:39.134Z,53.74
2022-11-11T15:55:25.638Z,53.36
2022-11-11T15:58:30.981Z,53.20
2022-11-11T16:01:16.909Z,53.92
2022-11-11T16:04:22.591Z,54.05
2022-11-11T16:07:30.083Z,53.77
2022-11-11T16:10:26.873Z,53.37
2022-11-11T16:13:20.532Z,53.57
2022-11-11T16:16:23.364Z,52.98
2022-11-11T16:19:34.864Z,53.46
2022-11-11T16:22:32.965Z,52.80
2022-11-11T16:25:22.682Z,52.93
2022-11-11T16:28:12.172Z,52.71
2022-11-11T16:30:58.877Z,52.59
2022-11-11T16:33:46.543Z,52.55
2022-11-11T16:36:31.869Z,52.06
2022-11-11T16:39:21.472Z,51.29
2022-11-11T16:42:22.009Z,51.09
2022-11-11T16:45:20.604Z,50.86
2022-11-11T16:48:06.106Z,51.77
2022-11-11T16:51:05.041Z,50.40
2022-11-11T16:54:07.499Z,51.06
2022-11-11T16:56:57.359Z,50.60
2022-11-11T16:59:48.158Z,50.94
2022-11-11T17:02:34.750Z,50.86
2022-11-11T17:05:40.060Z,50.50
2022-11-11T17:08:40.577Z,49.70
2022-11-11T17:11:45.995Z,50.02
2022-11-11T17:14:36.953Z,50.34
2022-11-11T17:17:22.542Z,50.15
2022-11-11T17:20:12.595Z,50.23
2022-11-11T17:22:58.874Z,50.41
2022-11-11T17:25:44.989Z,50.89
2022-11-11T17:28:32.263Z,51.54
2022-11-11T17:31:17.409Z,51.41
2022-11-11T17:34:07.623Z,51.45
2022-11-11T17:36:53.119Z,51.38
2022-11-11T17:39:43.292Z,52.04
2022-11-11T17:42:32.768Z,52.39
2022-11-11T17:45:19.939Z,52.75
2022-11-11T17:48:08.257Z,52.76
2022-11-11T17:50:56.112Z,52.64
2022-11-11T17:53:53.216Z,52.99
2022-11-11T17:56:41.920Z,53.20
2022-11-11T17:59:27.830Z,53.18
2022-11-11T18:02:14.317Z,53.33
2022-11-11T18:05:02.068Z,52.63
2022-11-11T18:07:48.607Z,52.16
2022-11-11T18:10:34.225Z,52.33
2022-11-11T18:13:19.964Z,52.10
2022-11-11T18:16:07.294Z,51.99
2022-11-11T18:18:54.837Z,51.57
2022-11-11T18:21:42.747Z,51.24
2022-11-11T18:24:31.358Z,51.40
2022-11-11T18:27:17.523Z,51.54
2022-11-11T18:30:03.771Z,50.93
2022-11-11T18:32:50.901Z,50.86
2022-11-11T18:35:36.664Z,51.39
2022-11-11T18:38:22.747Z,51.40
2022-11-11T18:41:17.163Z,51.29
2022-11-11T18:44:03.592Z,50.83
2022-11-11T18:46:49.856Z,50.65
2022-11-11T18:49:36.164Z,50.47
2022-11-11T18:52:22.541Z,50.37
2022-11-11T18:55:09.329Z,50.18
2022-11-11T18:57:55.455Z,50.68
2022-11-11T19:00:41.581Z,49.73
2022-11-11T19:03:27.631Z,50.72
2022-11-11T19:06:13.758Z,50.90
2022-11-11T19:09:02.395Z,50.32
2022-11-11T19:11:47.901Z,50.67
2022-11-11T19:14:33.308Z,50.34
2022-11-11T19:17:18.598Z,50.55
2022-11-11T19:20:06.056Z,49.93
2022-11-11T19:22:51.364Z,50.11
2022-11-11T19:25:37.247Z,50.25
2022-11-11T19:28:22.666Z,49.90
2022-11-11T19:31:13.247Z,50.42
2022-11-11T19:33:59.087Z,50.06
2022-11-11T19:36:44.581Z,49.26
2022-11-11T19:39:29.999Z,50.11
2022-11-11T19:42:16.104Z,49.62
2022-11-11T19:45:02.752Z,49.38
2022-11-11T19:47:49.909Z,49.74
2022-11-11T19:50:35.290Z,49.56
2022-11-11T19:53:20.830Z,49.95
2022-11-11T19:56:15.197Z,50.14
2022-11-11T19:59:03.349Z,50.22
2022-11-11T20:01:48.904Z,50.38
2022-11-11T20:04:34.363Z,50.93
2022-11-11T20:07:19.739Z,51.35
2022-11-11T20:10:06.237Z,50.40
2022-11-11T20:12:52.985Z,50.69
2022-11-11T20:15:38.424Z,49.77
2022-11-11T20:18:23.929Z,49.72
2022-11-11T20:21:09.475Z,50.61
2022-11-11T20:23:55.630Z,50.25
2022-11-11T20:26:41.277Z,50.53
2022-11-11T20:29:27.178Z,50.38
2022-11-11T20:32:12.221Z,50.67
2022-11-11T20:34:57.923Z,50.60
2022-11-11T20:37:43.623Z,49.50
2022-11-11T20:40:28.978Z,49.70
2022-11-11T20:43:14.455Z,49.19
2022-11-11T20:46:03.163Z,49.17
2022-11-11T20:48:50.714Z,49.25
2022-11-11T20:51:36.267Z,49.89
2022-11-11T20:54:22.025Z,49.82
2022-11-11T20:57:07.372Z,49.56
2022-11-11T20:59:52.914Z,49.69
2022-11-11T21:02:38.195Z,50.21
2022-11-11T21:05:23.838Z,50.32
2022-11-11T21:08:09.316Z,50.08
2022-11-11T21:10:56.162Z,49.80
2022-11-11T21:13:45.832Z,49.91
2022-11-11T21:16:32.449Z,49.69
2022-11-11T21:19:18.082Z,49.60
2022-11-11T21:22:08.910Z,49.51
2022-11-11T21:24:55.974Z,49.70
2022-11-11T21:27:41.524Z,50.05
2022-11-11T21:30:26.862Z,49.64
2022-11-11T21:33:12.291Z,50.12
2022-11-11T21:36:22.226Z,49.31
2022-11-11T21:39:09.861Z,49.44
2022-11-11T21:41:55.114Z,49.55
2022-11-11T21:44:41.102Z,49.21
2022-11-11T21:47:26.580Z,49.21
2022-11-11T21:50:12.131Z,49.80
2022-11-11T21:52:57.878Z,49.95
2022-11-11T21:55:43.195Z,49.98
2022-11-11T21:58:29.279Z,50.42
2022-11-11T22:01:19.603Z,50.34
2022-11-11T22:04:08.025Z,50.09
2022-11-11T22:06:53.328Z,50.19
2022-11-11T22:09:39.229Z,50.36
2022-11-11T22:12:25.750Z,50.61
2022-11-11T22:15:11.081Z,50.58
2022-11-11T22:17:56.533Z,50.24
2022-11-11T22:20:41.794Z,50.09
2022-11-11T22:23:27.268Z,49.91
2022-11-11T22:26:12.738Z,49.50
2022-11-11T22:28:58.627Z,49.88
2022-11-11T22:31:44.888Z,49.55
2022-11-11T22:34:30.969Z,49.64
2022-11-11T22:37:19.218Z,50.12
2022-11-11T22:40:05.214Z,50.13
2022-11-11T22:42:50.498Z,50.26
2022-11-11T22:45:35.950Z,50.22
2022-11-11T22:48:21.771Z,49.49
2022-11-11T22:51:14.078Z,49.67
2022-11-11T22:54:05.099Z,49.99
2022-11-11T22:56:50.681Z,50.56
2022-11-11T22:59:36.239Z,50.26
2022-11-11T23:02:21.678Z,50.39
2022-11-11T23:05:07.297Z,50.30
2022-11-11T23:07:54.117Z,50.26
2022-11-11T23:10:39.691Z,50.43
2022-11-11T23:13:25.066Z,49.83
2022-11-11T23:16:13.145Z,50.34
2022-11-11T23:19:00.574Z,50.24
2022-11-11T23:21:46.921Z,50.37
2022-11-11T23:24:32.235Z,50.25
2022-11-11T23:27:17.832Z,50.49
2022-11-11T23:30:04.019Z,50.45
2022-11-11T23:32:53.113Z,50.24
2022-11-11T23:35:39.379Z,50.67
2022-11-11T23:38:24.977Z,50.87
2022-11-11T23:41:11.608Z,50.91
2022-11-11T23:43:58.439Z,50.81
2022-11-11T23:46:44.962Z,50.95
2022-11-11T23:49:30.703Z,51.38
2022-11-11T23:52:16.496Z,51.12
2022-11-11T23:55:02.528Z,50.87
2022-11-11T23:57:48.262Z,51.25
